createdAt,value
2022-11-20T00:00:33.050Z,7.96
2022-11-20T00:03:00.915Z,8.01
2022-11-20T00:05:28.670Z,7.96
2022-11-20T00:07:57.857Z,7.96
2022-11-20T00:10:25.667Z,7.94
2022-11-20T00:12:53.402Z,7.97
2022-11-20T00:15:21.245Z,8.06
2022-11-20T00:17:48.982Z,8.07
2022-11-20T00:20:17.020Z,8.04
2022-11-20T00:22:44.831Z,8.09
2022-11-20T00:25:13.984Z,8.12
2022-11-20T00:27:41.761Z,8.17
2022-11-20T00:30:14.677Z,8.23
2022-11-20T00:32:42.715Z,8.26
2022-11-20T00:35:10.678Z,8.24
2022-11-20T00:37:38.431Z,8.24
2022-11-20T00:40:06.774Z,8.21
2022-11-20T00:42:35.900Z,8.17
2022-11-20T00:45:03.673Z,8.22
2022-11-20T00:47:31.373Z,8.29
2022-11-20T00:49:59.259Z,8.34
2022-11-20T00:52:27.143Z,8.39
2022-11-20T00:54:54.887Z,8.40
2022-11-20T00:57:22.580Z,8.44
2022-11-20T00:59:51.752Z,8.45
2022-11-20T01:02:19.568Z,8.48
2022-11-20T01:04:47.386Z,8.48
2022-11-20T01:07:15.140Z,8.47
2022-11-20T01:09:42.973Z,8.45
2022-11-20T01:12:10.783Z,8.47
2022-11-20T01:14:38.689Z,8.42
2022-11-20T01:17:07.782Z,8.43
2022-11-20T01:19:35.604Z,8.33
2022-11-20T01:22:03.428Z,8.24
2022-11-20T01:24:31.201Z,8.11
2022-11-20T01:26:59.044Z,7.99
2022-11-20T01:29:27.188Z,7.84
2022-11-20T01:31:55.338Z,7.67
2022-11-20T01:34:24.975Z,7.63
2022-11-20T01:36:53.124Z,7.59
2022-11-20T01:39:22.614Z,7.58
2022-11-20T01:42:10.282Z,7.58
2022-11-20T01:44:47.893Z,7.58
2022-11-20T01:47:16.568Z,7.60
2022-11-20T01:49:49.301Z,7.62
2022-11-20T01:52:18.438Z,7.70
2022-11-20T01:54:48.923Z,7.77
2022-11-20T01:57:17.773Z,7.79
2022-11-20T01:59:50.157Z,7.78
2022-11-20T02:02:17.915Z,7.79
2022-11-20T02:04:47.284Z,7.76
2022-11-20T02:07:15.947Z,7.75
2022-11-20T02:09:43.758Z,7.75
2022-11-20T02:12:31.757Z,7.80
2022-11-20T02:14:58.602Z,7.82
2022-11-20T02:17:26.828Z,7.82
2022-11-20T02:19:56.075Z,7.83
2022-11-20T02:22:26.698Z,7.86
2022-11-20T02:24:55.868Z,7.88
2022-11-20T02:27:23.963Z,7.91
2022-11-20T02:29:54.263Z,7.92
2022-11-20T02:32:22.732Z,7.90
2022-11-20T02:34:50.621Z,7.90
2022-11-20T02:37:19.049Z,7.91
2022-11-20T02:39:47.735Z,7.93
2022-11-20T02:42:17.066Z,7.96
2022-11-20T02:44:44.804Z,7.97
2022-11-20T02:47:12.772Z,7.93
2022-11-20T02:49:40.517Z,7.92
2022-11-20T02:52:08.292Z,7.91
2022-11-20T02:54:36.083Z,7.91
2022-11-20T02:57:04.004Z,7.86
2022-11-20T02:59:33.154Z,7.82
2022-11-20T03:02:00.993Z,7.80
2022-11-20T03:04:28.774Z,7.77
2022-11-20T03:06:56.645Z,7.76
2022-11-20T03:09:24.502Z,7.75
2022-11-20T03:11:52.328Z,7.79
2022-11-20T03:14:20.109Z,7.80
2022-11-20T03:16:49.302Z,7.85
2022-11-20T03:19:17.091Z,7.87
2022-11-20T03:21:44.904Z,7.92
2022-11-20T03:24:12.622Z,7.95
2022-11-20T03:26:40.978Z,7.95
2022-11-20T03:29:09.069Z,7.98
2022-11-20T03:31:37.750Z,8.00
2022-11-20T03:34:06.938Z,8.00
2022-11-20T03:36:34.729Z,8.02
2022-11-20T03:39:02.797Z,8.02
2022-11-20T03:41:31.273Z,8.01
2022-11-20T03:43:59.842Z,8.01
2022-11-20T03:46:28.496Z,7.98
2022-11-20T03:48:56.246Z,7.97
2022-11-20T03:51:26.136Z,7.95
2022-11-20T03:53:55.002Z,7.85
2022-11-20T03:56:25.385Z,7.81
2022-11-20T03:58:53.456Z,7.81
2022-11-20T04:01:22.253Z,7.84
2022-11-20T04:03:50.571Z,7.82
2022-11-20T04:06:19.812Z,7.82
2022-11-20T04:08:53.613Z,7.84
2022-11-20T04:11:22.435Z,7.89
2022-11-20T04:13:51.173Z,7.91
2022-11-20T04:16:19.432Z,7.90
2022-11-20T04:18:47.222Z,7.88
2022-11-20T04:21:15.065Z,7.80
2022-11-20T04:23:42.749Z,7.72
2022-11-20T04:26:13.261Z,7.70
2022-11-20T04:28:41.216Z,7.71
2022-11-20T04:31:10.377Z,7.77
2022-11-20T04:33:38.511Z,7.77
2022-11-20T04:36:07.315Z,7.81
2022-11-20T04:38:35.433Z,7.84
2022-11-20T04:41:03.996Z,7.87
2022-11-20T04:43:33.769Z,7.90
2022-11-20T04:46:01.963Z,7.90
2022-11-20T04:48:30.671Z,7.92
2022-11-20T04:50:58.648Z,7.94
2022-11-20T04:53:26.415Z,7.97
2022-11-20T04:55:54.120Z,7.99
2022-11-20T04:58:21.871Z,8.01
2022-11-20T05:00:52.830Z,8.04
2022-11-20T05:03:20.659Z,8.03
2022-11-20T05:05:48.432Z,8.02
2022-11-20T05:08:16.129Z,8.03
2022-11-20T05:10:43.905Z,8.03
2022-11-20T05:13:11.643Z,8.04
2022-11-20T05:15:39.417Z,8.03
2022-11-20T05:18:08.692Z,8.04
2022-11-20T05:20:37.277Z,8.06
2022-11-20T05:23:05.095Z,8.07
2022-11-20T05:25:32.804Z,8.09
2022-11-20T05:28:00.577Z,8.11
2022-11-20T05:30:28.330Z,8.09
2022-11-20T05:32:56.011Z,8.09
2022-11-20T05:35:25.168Z,8.09
2022-11-20T05:37:52.931Z,8.11
2022-11-20T05:40:20.728Z,8.12
2022-11-20T05:42:48.460Z,8.12
2022-11-20T05:45:16.236Z,8.15
2022-11-20T05:47:44.069Z,8.18
2022-11-20T05:50:11.884Z,8.20
2022-11-20T05:52:41.113Z,8.23
2022-11-20T05:55:09.423Z,8.25
2022-11-20T05:57:37.567Z,8.27
2022-11-20T06:00:05.782Z,8.30
2022-11-20T06:02:36.457Z,8.29
2022-11-20T06:05:04.411Z,8.34
2022-11-20T06:07:32.219Z,8.39
2022-11-20T06:10:01.349Z,8.45
2022-11-20T06:12:29.249Z,8.47
2022-11-20T06:14:57.038Z,8.50
2022-11-20T06:17:24.941Z,8.52
2022-11-20T06:19:52.721Z,8.56
2022-11-20T06:22:20.594Z,8.62
2022-11-20T06:24:48.478Z,8.62
2022-11-20T06:27:17.816Z,8.62
2022-11-20T06:29:45.772Z,8.60
2022-11-20T06:32:13.602Z,8.63
2022-11-20T06:34:41.375Z,8.71
2022-11-20T06:37:09.232Z,8.77
2022-11-20T06:39:36.985Z,8.83
2022-11-20T06:42:04.898Z,8.83
2022-11-20T06:44:34.081Z,8.86
2022-11-20T06:47:02.089Z,8.87
2022-11-20T06:49:30.004Z,8.88
2022-11-20T06:51:57.775Z,8.88
2022-11-20T06:54:25.653Z,8.90
2022-11-20T06:56:53.441Z,8.98
2022-11-20T06:59:21.358Z,9.00
2022-11-20T07:01:50.590Z,8.98
2022-11-20T07:04:18.365Z,8.99
2022-11-20T07:06:46.095Z,9.01
2022-11-20T07:09:13.914Z,9.05
2022-11-20T07:11:41.665Z,9.11
2022-11-20T07:14:09.452Z,9.15
2022-11-20T07:16:37.242Z,9.25
2022-11-20T07:19:06.312Z,9.35
2022-11-20T07:21:34.060Z,9.43
2022-11-20T07:24:01.864Z,9.53
2022-11-20T07:26:29.667Z,9.54
2022-11-20T07:28:57.467Z,9.49
2022-11-20T07:31:25.216Z,9.49
2022-11-20T07:33:53.064Z,9.47
2022-11-20T07:36:22.231Z,9.52
2022-11-20T07:38:50.047Z,9.58
2022-11-20T07:41:17.884Z,9.65
2022-11-20T07:43:45.609Z,9.76
2022-11-20T07:46:13.385Z,9.81
2022-11-20T07:48:41.895Z,9.84
2022-11-20T07:51:09.991Z,9.86
2022-11-20T07:53:39.140Z,9.90
2022-11-20T07:56:07.300Z,9.96
2022-11-20T07:58:35.583Z,10.07
2022-11-20T08:01:06.880Z,10.10
2022-11-20T08:03:36.073Z,10.11
2022-11-20T08:06:03.958Z,10.20
2022-11-20T08:08:33.818Z,10.24
2022-11-20T08:11:17.246Z,10.32
2022-11-20T08:14:02.306Z,10.32
2022-11-20T08:16:30.247Z,10.40
2022-11-20T08:18:58.501Z,10.36
2022-11-20T08:21:26.270Z,10.41
2022-11-20T08:23:54.064Z,10.57
2022-11-20T08:26:24.416Z,10.72
2022-11-20T08:28:55.470Z,10.82
2022-11-20T08:31:23.348Z,10.95
2022-11-20T08:33:51.138Z,11.03
2022-11-20T08:36:19.432Z,11.15
2022-11-20T08:38:49.091Z,11.26
2022-11-20T08:41:26.757Z,11.29
2022-11-20T08:43:57.049Z,11.24
2022-11-20T08:46:25.531Z,11.29
2022-11-20T08:48:53.370Z,11.32
2022-11-20T08:51:21.630Z,11.37
2022-11-20T08:53:50.670Z,11.34
2022-11-20T08:56:18.644Z,11.37
2022-11-20T08:59:17.976Z,11.45
2022-11-20T09:01:36.069Z,11.57
2022-11-20T09:04:05.704Z,11.63
2022-11-20T09:06:33.504Z,11.67
2022-11-20T09:09:06.374Z,11.72
2022-11-20T09:11:34.560Z,11.62
2022-11-20T09:14:03.785Z,11.64
2022-11-20T09:16:31.799Z,11.73
2022-11-20T09:19:40.586Z,11.78
2022-11-20T09:21:48.786Z,11.91
2022-11-20T09:24:16.501Z,11.99
2022-11-20T09:26:44.219Z,12.09
2022-11-20T09:29:11.987Z,12.15
2022-11-20T09:31:39.737Z,12.12
2022-11-20T09:34:08.914Z,11.99
2022-11-20T09:36:36.716Z,12.02
2022-11-20T09:39:05.909Z,12.09
2022-11-20T09:41:38.550Z,12.13
2022-11-20T09:44:09.664Z,12.22
2022-11-20T09:46:42.396Z,12.28
2022-11-20T09:49:21.179Z,12.29
2022-11-20T09:51:55.922Z,12.29
2022-11-20T09:54:24.922Z,12.31
2022-11-20T09:56:53.910Z,12.38
2022-11-20T09:59:28.438Z,12.48
2022-11-20T10:01:57.482Z,12.57
2022-11-20T10:04:26.949Z,12.61
2022-11-20T10:07:30.283Z,12.70
2022-11-20T10:09:52.395Z,12.64
2022-11-20T10:12:23.346Z,12.55
2022-11-20T10:14:58.744Z,12.61
2022-11-20T10:17:36.068Z,12.43
2022-11-20T10:20:19.636Z,12.42
2022-11-20T10:22:55.943Z,12.41
2022-11-20T10:25:26.525Z,12.47
2022-11-20T10:28:02.029Z,12.56
2022-11-20T10:30:31.295Z,12.65
2022-11-20T10:33:01.233Z,12.78
2022-11-20T10:35:34.340Z,12.89
2022-11-20T10:38:02.958Z,12.89
2022-11-20T10:40:34.774Z,12.92
2022-11-20T10:43:09.571Z,12.91
2022-11-20T10:45:43.355Z,12.89
2022-11-20T10:48:14.859Z,12.85
2022-11-20T10:50:49.897Z,12.74
2022-11-20T10:53:21.150Z,12.70
2022-11-20T10:55:52.961Z,12.69
2022-11-20T10:58:24.615Z,12.63
2022-11-20T11:00:52.384Z,12.61
2022-11-20T11:03:24.733Z,12.63
2022-11-20T11:05:57.042Z,12.61
2022-11-20T11:08:25.218Z,12.72
2022-11-20T11:10:55.766Z,12.91
2022-11-20T11:13:23.966Z,13.00
2022-11-20T11:15:52.123Z,13.10
2022-11-20T11:18:26.602Z,13.16
2022-11-20T11:20:57.211Z,13.23
2022-11-20T11:23:30.768Z,13.20
2022-11-20T11:25:59.003Z,13.13
2022-11-20T11:28:28.821Z,13.13
2022-11-20T11:30:56.917Z,13.13
2022-11-20T11:33:25.367Z,13.20
2022-11-20T11:35:54.613Z,13.24
2022-11-20T11:38:25.575Z,13.23
2022-11-20T11:40:55.766Z,13.28
2022-11-20T11:43:42.418Z,13.29
2022-11-20T11:46:22.954Z,13.34
2022-11-20T11:48:57.101Z,13.39
2022-11-20T11:51:25.577Z,13.30
2022-11-20T11:53:54.735Z,13.29
2022-11-20T11:56:23.178Z,13.25
2022-11-20T11:58:52.594Z,13.22
2022-11-20T12:01:27.027Z,13.25
2022-11-20T12:03:57.858Z,13.30
2022-11-20T12:06:27.401Z,13.24
2022-11-20T12:09:00.052Z,13.27
2022-11-20T12:11:33.033Z,13.30
2022-11-20T12:14:05.251Z,13.29
2022-11-20T12:16:35.696Z,13.31
2022-11-20T12:19:03.599Z,13.34
2022-11-20T12:21:38.211Z,13.27
2022-11-20T12:24:28.091Z,13.13
2022-11-20T12:27:02.689Z,13.06
2022-11-20T12:29:34.257Z,12.98
2022-11-20T12:32:08.362Z,12.95
2022-11-20T12:34:46.195Z,12.93
2022-11-20T12:37:21.682Z,12.89
2022-11-20T12:39:51.845Z,12.88
2022-11-20T12:42:46.950Z,12.90
2022-11-20T12:45:31.079Z,12.90
2022-11-20T12:48:05.333Z,12.84
2022-11-20T12:51:00.393Z,12.79
2022-11-20T12:53:33.237Z,12.72
2022-11-20T12:56:07.421Z,12.67
2022-11-20T12:58:40.944Z,12.62
2022-11-20T13:01:38.203Z,12.55
2022-11-20T13:04:10.968Z,12.51
2022-11-20T13:06:39.416Z,12.45
2022-11-20T13:09:14.174Z,12.36
2022-11-20T13:11:46.173Z,12.28
2022-11-20T13:14:23.534Z,12.23
2022-11-20T13:16:54.055Z,12.13
2022-11-20T13:19:22.432Z,12.09
2022-11-20T13:21:51.534Z,12.03
2022-11-20T13:24:27.462Z,11.97
2022-11-20T13:27:13.833Z,11.91
2022-11-20T13:29:44.781Z,11.84
2022-11-20T13:32:16.642Z,11.77
2022-11-20T13:34:53.664Z,11.73
2022-11-20T13:37:27.302Z,11.67
2022-11-20T13:39:55.154Z,11.61
2022-11-20T13:42:27.450Z,11.54
2022-11-20T13:44:57.496Z,11.51
2022-11-20T13:47:26.059Z,11.46
2022-11-20T13:49:55.408Z,11.41
2022-11-20T13:52:34.581Z,11.38
2022-11-20T13:55:13.317Z,11.34
2022-11-20T13:57:55.899Z,11.28
2022-11-20T14:00:26.093Z,11.24
2022-11-20T14:03:02.011Z,11.18
2022-11-20T14:05:30.417Z,11.17
2022-11-20T14:07:59.091Z,11.12
2022-11-20T14:10:31.735Z,11.11
2022-11-20T14:13:00.457Z,11.12
2022-11-20T14:15:30.932Z,11.15
2022-11-20T14:17:59.136Z,11.16
2022-11-20T14:20:28.937Z,11.16
2022-11-20T14:22:57.251Z,11.17
2022-11-20T14:25:28.262Z,11.17
2022-11-20T14:27:57.134Z,11.13
2022-11-20T14:30:26.340Z,11.10
2022-11-20T14:32:56.507Z,11.06
2022-11-20T14:35:26.534Z,11.04
2022-11-20T14:37:54.436Z,11.02
2022-11-20T14:40:26.394Z,11.01
2022-11-20T14:42:54.119Z,11.00
2022-11-20T14:45:22.716Z,10.98
2022-11-20T14:47:50.905Z,10.98
2022-11-20T14:50:21.791Z,10.97
2022-11-20T14:52:53.310Z,10.95
2022-11-20T14:55:28.206Z,10.91
2022-11-20T14:58:00.450Z,10.87
2022-11-20T15:00:28.739Z,10.82
2022-11-20T15:02:56.783Z,10.81
2022-11-20T15:05:26.846Z,10.77
2022-11-20T15:08:06.411Z,10.69
2022-11-20T15:10:34.333Z,10.66
2022-11-20T15:13:05.135Z,10.65
2022-11-20T15:15:38.592Z,10.63
2022-11-20T15:18:06.709Z,10.62
2022-11-20T15:20:38.062Z,10.61
2022-11-20T15:23:11.393Z,10.61
2022-11-20T15:25:40.049Z,10.61
2022-11-20T15:28:15.011Z,10.64
2022-11-20T15:30:42.756Z,10.67
2022-11-20T15:33:10.666Z,10.69
2022-11-20T15:35:39.829Z,10.71
2022-11-20T15:38:07.560Z,10.73
2022-11-20T15:40:35.581Z,10.72
2022-11-20T15:43:11.590Z,10.69
2022-11-20T15:45:42.679Z,10.66
2022-11-20T15:48:12.352Z,10.66
2022-11-20T15:50:44.719Z,10.65
2022-11-20T15:53:12.572Z,10.60
2022-11-20T15:55:40.350Z,10.57
2022-11-20T15:58:08.129Z,10.57
2022-11-20T16:00:36.036Z,10.60
2022-11-20T16:03:03.795Z,10.64
2022-11-20T16:05:31.707Z,10.69
2022-11-20T16:08:00.827Z,10.69
2022-11-20T16:10:28.555Z,10.69
2022-11-20T16:13:13.570Z,10.72
2022-11-20T16:15:50.051Z,10.71
2022-11-20T16:18:19.020Z,10.72
2022-11-20T16:20:47.358Z,10.72
2022-11-20T16:23:17.080Z,10.71
2022-11-20T16:25:45.110Z,10.67
2022-11-20T16:28:18.406Z,10.66
2022-11-20T16:30:46.937Z,10.68
2022-11-20T16:33:15.399Z,10.68
2022-11-20T16:35:43.183Z,10.66
2022-11-20T16:38:11.307Z,10.61
2022-11-20T16:40:40.464Z,10.60
2022-11-20T16:43:09.829Z,10.56
2022-11-20T16:45:41.714Z,10.56
2022-11-20T16:48:13.188Z,10.57
2022-11-20T16:50:46.334Z,10.62
2022-11-20T16:53:14.125Z,10.65
2022-11-20T16:55:43.258Z,10.66
2022-11-20T16:58:11.017Z,10.66
2022-11-20T17:00:39.252Z,10.65
2022-11-20T17:03:07.044Z,10.67
2022-11-20T17:05:35.345Z,10.69
2022-11-20T17:08:03.359Z,10.71
2022-11-20T17:10:31.197Z,10.73
2022-11-20T17:13:00.494Z,10.72
2022-11-20T17:15:28.253Z,10.67
2022-11-20T17:17:55.989Z,10.61
2022-11-20T17:20:23.770Z,10.54
2022-11-20T17:22:51.504Z,10.47
2022-11-20T17:25:19.257Z,10.43
2022-11-20T17:27:46.949Z,10.39
2022-11-20T17:30:16.369Z,10.35
2022-11-20T17:32:47.086Z,10.28
2022-11-20T17:35:14.848Z,10.30
2022-11-20T17:37:42.581Z,10.29
2022-11-20T17:40:10.482Z,10.32
2022-11-20T17:42:38.213Z,10.37
2022-11-20T17:45:06.364Z,10.43
2022-11-20T17:47:36.318Z,10.41
2022-11-20T17:50:04.238Z,10.40
2022-11-20T17:52:32.076Z,10.40
2022-11-20T17:54:59.949Z,10.36
2022-11-20T17:57:56.984Z,10.32
2022-11-20T18:00:25.253Z,10.31
2022-11-20T18:02:54.471Z,10.30
2022-11-20T18:05:22.372Z,10.33
2022-11-20T18:07:53.116Z,10.33
2022-11-20T18:10:20.813Z,10.32
2022-11-20T18:12:48.525Z,10.28
2022-11-20T18:15:16.366Z,10.30
2022-11-20T18:17:44.121Z,10.30
2022-11-20T18:20:28.775Z,10.31
2022-11-20T18:22:58.438Z,10.28
2022-11-20T18:25:26.317Z,10.30
2022-11-20T18:27:54.165Z,10.29
2022-11-20T18:30:22.204Z,10.29
2022-11-20T18:32:50.226Z,10.21
2022-11-20T18:35:19.369Z,10.15
2022-11-20T18:37:47.130Z,10.11
2022-11-20T18:40:15.174Z,10.11
2022-11-20T18:43:00.264Z,10.06
2022-11-20T18:45:28.032Z,10.08
2022-11-20T18:47:55.734Z,10.11
2022-11-20T18:50:24.866Z,10.07
2022-11-20T18:52:52.683Z,10.05
2022-11-20T18:55:20.439Z,10.08
2022-11-20T18:57:48.298Z,10.11
2022-11-20T19:00:16.360Z,10.11
2022-11-20T19:02:44.076Z,10.09
2022-11-20T19:05:12.374Z,10.14
2022-11-20T19:07:42.600Z,10.19
2022-11-20T19:10:10.804Z,10.22
2022-11-20T19:12:38.571Z,10.26
2022-11-20T19:15:06.752Z,10.26
2022-11-20T19:17:34.524Z,10.25
2022-11-20T19:20:02.263Z,10.25
2022-11-20T19:22:30.210Z,10.24
2022-11-20T19:24:59.374Z,10.21
2022-11-20T19:27:27.133Z,10.17
2022-11-20T19:29:58.925Z,10.08
2022-11-20T19:32:26.879Z,10.02
2022-11-20T19:34:54.687Z,9.98
2022-11-20T19:37:22.422Z,9.92
2022-11-20T19:39:50.169Z,9.88
2022-11-20T19:42:19.301Z,9.87
2022-11-20T19:44:47.053Z,9.87
2022-11-20T19:47:15.096Z,9.77
2022-11-20T19:49:42.953Z,9.73
2022-11-20T19:52:10.777Z,9.75
2022-11-20T19:54:38.749Z,9.75
2022-11-20T19:57:06.693Z,9.70
2022-11-20T19:59:35.782Z,9.66
2022-11-20T20:02:04.571Z,9.70
2022-11-20T20:04:32.393Z,9.75
2022-11-20T20:07:00.904Z,9.84
2022-11-20T20:09:29.828Z,9.89
2022-11-20T20:11:57.500Z,9.93
2022-11-20T20:14:25.180Z,9.92
2022-11-20T20:16:54.264Z,9.89
2022-11-20T20:19:22.396Z,9.85
2022-11-20T20:21:50.472Z,9.80
2022-11-20T20:24:18.271Z,9.75
2022-11-20T20:26:46.149Z,9.75
2022-11-20T20:29:13.861Z,9.78
2022-11-20T20:31:41.632Z,9.84
2022-11-20T20:34:10.768Z,9.85
2022-11-20T20:36:38.467Z,9.84
2022-11-20T20:39:06.272Z,9.84
2022-11-20T20:41:34.082Z,9.86
2022-11-20T20:44:19.545Z,9.85
2022-11-20T20:46:47.371Z,9.85
2022-11-20T20:49:16.497Z,9.84
2022-11-20T20:51:44.194Z,9.82
2022-11-20T20:54:11.997Z,9.79
2022-11-20T20:56:39.746Z,9.80
2022-11-20T20:59:07.674Z,9.79
2022-11-20T21:01:35.457Z,9.82
2022-11-20T21:04:03.290Z,9.84
2022-11-20T21:06:32.494Z,9.80
2022-11-20T21:09:00.286Z,9.76
2022-11-20T21:11:28.169Z,9.73
2022-11-20T21:13:56.054Z,9.71
2022-11-20T21:16:25.075Z,9.67
2022-11-20T21:18:52.868Z,9.53
2022-11-20T21:21:37.946Z,9.49
2022-11-20T21:24:07.708Z,9.41
2022-11-20T21:26:35.600Z,9.41
2022-11-20T21:29:03.507Z,9.48
2022-11-20T21:31:31.291Z,9.52
2022-11-20T21:33:59.450Z,9.53
2022-11-20T21:36:28.176Z,9.53
2022-11-20T21:38:56.591Z,9.58
2022-11-20T21:41:26.737Z,9.62
2022-11-20T21:44:29.990Z,9.67
2022-11-20T21:46:43.658Z,9.70
2022-11-20T21:49:11.841Z,9.71
2022-11-20T21:51:39.676Z,9.74
2022-11-20T21:54:07.424Z,9.74
2022-11-20T21:56:36.509Z,9.75
2022-11-20T21:59:04.221Z,9.73
2022-11-20T22:01:32.258Z,9.69
2022-11-20T22:04:00.889Z,9.62
2022-11-20T22:06:32.418Z,9.64
2022-11-20T22:09:00.381Z,9.65
2022-11-20T22:11:28.474Z,9.63
2022-11-20T22:14:15.148Z,9.61
2022-11-20T22:16:42.929Z,9.62
2022-11-20T22:19:10.786Z,9.64
2022-11-20T22:21:40.032Z,9.66
2022-11-20T22:24:07.949Z,9.71
2022-11-20T22:26:40.152Z,9.74
2022-11-20T22:29:13.659Z,9.74
2022-11-20T22:31:41.413Z,9.74
2022-11-20T22:34:11.080Z,9.76
2022-11-20T22:36:39.156Z,9.74
2022-11-20T22:39:07.622Z,9.73
2022-11-20T22:41:35.386Z,9.74
2022-11-20T22:44:03.819Z,9.73
2022-11-20T22:46:34.220Z,9.73
2022-11-20T22:49:03.025Z,9.73
2022-11-20T22:51:31.335Z,9.78
2022-11-20T22:53:59.106Z,9.81
2022-11-20T22:56:27.046Z,9.82
2022-11-20T22:58:55.162Z,9.80
2022-11-20T23:01:23.932Z,9.81
2022-11-20T23:03:54.092Z,9.79
2022-11-20T23:06:22.475Z,9.84
2022-11-20T23:08:51.237Z,9.84
2022-11-20T23:11:19.716Z,9.82
2022-11-20T23:13:47.484Z,9.80
2022-11-20T23:16:16.085Z,9.77
2022-11-20T23:18:44.427Z,9.76
2022-11-20T23:21:14.308Z,9.76
2022-11-20T23:23:42.263Z,9.76
2022-11-20T23:26:11.279Z,9.80
2022-11-20T23:28:39.148Z,9.78
2022-11-20T23:31:07.437Z,9.74
2022-11-20T23:33:36.579Z,9.69
2022-11-20T23:36:05.007Z,9.66
2022-11-20T23:38:34.395Z,9.66
2022-11-20T23:41:02.653Z,9.64
2022-11-20T23:43:30.592Z,9.65
2022-11-20T23:45:58.918Z,9.62
2022-11-20T23:48:27.482Z,9.60
2022-11-20T23:50:55.496Z,9.60
2022-11-20T23:53:23.751Z,9.61
2022-11-20T23:55:53.907Z,9.59
2022-11-20T23:58:22.339Z,9.56
